sensor_id;sensor_type;location;lat;lon;timestamp;P1;durP1;ratioP1;P2;durP2;ratioP2
68800;SDS011;55784;50.734;7.086;2022-09-17T00:00:49;6.37;;;0.80;;
68800;SDS011;55784;50.734;7.086;2022-09-17T00:03:16;6.75;;;1.15;;
68800;SDS011;55784;50.734;7.086;2022-09-17T00:05:41;4.87;;;0.80;;
68800;SDS011;55784;50.734;7.086;2022-09-17T00:08:08;7.65;;;1.15;;
68800;SDS011;55784;50.734;7.086;2022-09-17T00:10:36;6.60;;;0.90;;
68800;SDS011;55784;50.734;7.086;2022-09-17T00:13:03;7.63;;;1.17;;
68800;SDS011;55784;50.734;7.086;2022-09-17T00:15:29;6.03;;;1.10;;
68800;SDS011;55784;50.734;7.086;2022-09-17T00:17:55;8.27;;;1.33;;
68800;SDS011;55784;50.734;7.086;2022-09-17T00:20:22;6.00;;;0.95;;
68800;SDS011;55784;50.734;7.086;2022-09-17T00:22:50;5.85;;;1.00;;
68800;SDS011;55784;50.734;7.086;2022-09-17T00:25:16;8.35;;;1.00;;
68800;SDS011;55784;50.734;7.086;2022-09-17T00:27:41;5.67;;;0.97;;
68800;SDS011;55784;50.734;7.086;2022-09-17T00:30:07;6.47;;;1.10;;
68800;SDS011;55784;50.734;7.086;2022-09-17T00:32:33;6.75;;;1.10;;
68800;SDS011;55784;50.734;7.086;2022-09-17T00:34:58;8.03;;;1.00;;
68800;SDS011;55784;50.734;7.086;2022-09-17T00:37:23;6.23;;;1.27;;
68800;SDS011;55784;50.734;7.086;2022-09-17T00:39:49;6.03;;;1.20;;
68800;SDS011;55784;50.734;7.086;2022-09-17T00:42:15;5.10;;;0.90;;
68800;SDS011;55784;50.734;7.086;2022-09-17T00:47:37;6.95;;;1.30;;
68800;SDS011;55784;50.734;7.086;2022-09-17T00:52:41;4.82;;;1.00;;
68800;SDS011;55784;50.734;7.086;2022-09-17T00:55:26;5.97;;;1.17;;
68800;SDS011;55784;50.734;7.086;2022-09-17T00:57:56;6.80;;;1.10;;
68800;SDS011;55784;50.734;7.086;2022-09-17T01:00:25;6.22;;;1.00;;
68800;SDS011;55784;50.734;7.086;2022-09-17T01:02:52;4.45;;;1.00;;
68800;SDS011;55784;50.734;7.086;2022-09-17T01:05:19;6.28;;;1.20;;
68800;SDS011;55784;50.734;7.086;2022-09-17T01:07:54;6.22;;;1.10;;
68800;SDS011;55784;50.734;7.086;2022-09-17T01:10:43;6.15;;;1.00;;
68800;SDS011;55784;50.734;7.086;2022-09-17T01:30:38;8.43;;;1.15;;
68800;SDS011;55784;50.734;7.086;2022-09-17T01:36:02;7.28;;;1.20;;
68800;SDS011;55784;50.734;7.086;2022-09-17T01:38:52;8.05;;;1.30;;
68800;SDS011;55784;50.734;7.086;2022-09-17T01:41:42;6.55;;;1.15;;
68800;SDS011;55784;50.734;7.086;2022-09-17T01:44:16;7.38;;;1.33;;
68800;SDS011;55784;50.734;7.086;2022-09-17T01:47:09;7.15;;;1.38;;
68800;SDS011;55784;50.734;7.086;2022-09-17T01:49:40;8.98;;;1.60;;
68800;SDS011;55784;50.734;7.086;2022-09-17T01:52:06;10.52;;;1.73;;
68800;SDS011;55784;50.734;7.086;2022-09-17T01:54:48;8.25;;;1.40;;
68800;SDS011;55784;50.734;7.086;2022-09-17T01:57:28;7.25;;;1.77;;
68800;SDS011;55784;50.734;7.086;2022-09-17T02:00:00;8.07;;;1.67;;
68800;SDS011;55784;50.734;7.086;2022-09-17T02:02:29;7.38;;;1.50;;
68800;SDS011;55784;50.734;7.086;2022-09-17T02:05:07;10.48;;;1.95;;
68800;SDS011;55784;50.734;7.086;2022-09-17T02:07:39;8.27;;;1.52;;
68800;SDS011;55784;50.734;7.086;2022-09-17T02:10:10;8.15;;;1.35;;
68800;SDS011;55784;50.734;7.086;2022-09-17T02:12:40;10.32;;;1.60;;
68800;SDS011;55784;50.734;7.086;2022-09-17T02:15:11;6.45;;;1.40;;
68800;SDS011;55784;50.734;7.086;2022-09-17T02:17:50;10.88;;;1.77;;
68800;SDS011;55784;50.734;7.086;2022-09-17T02:20:20;9.10;;;1.75;;
68800;SDS011;55784;50.734;7.086;2022-09-17T02:23:00;8.23;;;1.60;;
68800;SDS011;55784;50.734;7.086;2022-09-17T02:25:33;7.18;;;1.50;;
68800;SDS011;55784;50.734;7.086;2022-09-17T02:28:16;7.78;;;1.50;;
68800;SDS011;55784;50.734;7.086;2022-09-17T02:30:49;9.43;;;1.65;;
68800;SDS011;55784;50.734;7.086;2022-09-17T02:33:14;9.40;;;1.55;;
68800;SDS011;55784;50.734;7.086;2022-09-17T02:35:40;6.20;;;1.30;;
68800;SDS011;55784;50.734;7.086;2022-09-17T02:38:08;8.15;;;1.25;;
68800;SDS011;55784;50.734;7.086;2022-09-17T02:40:34;10.60;;;1.40;;
68800;SDS011;55784;50.734;7.086;2022-09-17T02:49:42;7.68;;;1.60;;
68800;SDS011;55784;50.734;7.086;2022-09-17T02:52:30;7.50;;;1.20;;
68800;SDS011;55784;50.734;7.086;2022-09-17T02:55:15;6.28;;;1.30;;
68800;SDS011;55784;50.734;7.086;2022-09-17T02:57:53;10.95;;;1.30;;
68800;SDS011;55784;50.734;7.086;2022-09-17T03:00:45;6.07;;;0.95;;
68800;SDS011;55784;50.734;7.086;2022-09-17T03:03:12;6.50;;;1.30;;
68800;SDS011;55784;50.734;7.086;2022-09-17T03:05:44;9.98;;;1.30;;
68800;SDS011;55784;50.734;7.086;2022-09-17T03:08:11;6.85;;;1.38;;
68800;SDS011;55784;50.734;7.086;2022-09-17T03:10:38;8.52;;;1.10;;
68800;SDS011;55784;50.734;7.086;2022-09-17T03:13:04;7.35;;;1.08;;
68800;SDS011;55784;50.734;7.086;2022-09-17T03:15:29;7.57;;;1.53;;
68800;SDS011;55784;50.734;7.086;2022-09-17T03:17:55;7.28;;;1.20;;
68800;SDS011;55784;50.734;7.086;2022-09-17T03:20:20;8.73;;;1.10;;
68800;SDS011;55784;50.734;7.086;2022-09-17T03:22:45;8.90;;;1.30;;
68800;SDS011;55784;50.734;7.086;2022-09-17T03:25:11;7.97;;;1.10;;
68800;SDS011;55784;50.734;7.086;2022-09-17T03:27:36;6.55;;;1.00;;
68800;SDS011;55784;50.734;7.086;2022-09-17T03:30:02;9.45;;;1.13;;
68800;SDS011;55784;50.734;7.086;2022-09-17T03:32:28;11.63;;;1.30;;
68800;SDS011;55784;50.734;7.086;2022-09-17T03:34:53;8.53;;;1.43;;
68800;SDS011;55784;50.734;7.086;2022-09-17T03:37:19;7.93;;;1.27;;
68800;SDS011;55784;50.734;7.086;2022-09-17T03:39:44;7.07;;;1.00;;
68800;SDS011;55784;50.734;7.086;2022-09-17T03:42:09;8.07;;;1.13;;
68800;SDS011;55784;50.734;7.086;2022-09-17T03:44:35;6.17;;;1.00;;
68800;SDS011;55784;50.734;7.086;2022-09-17T03:47:01;8.52;;;1.20;;
68800;SDS011;55784;50.734;7.086;2022-09-17T03:49:26;7.23;;;1.17;;
68800;SDS011;55784;50.734;7.086;2022-09-17T03:51:51;8.80;;;1.00;;
68800;SDS011;55784;50.734;7.086;2022-09-17T03:54:17;6.17;;;0.80;;
68800;SDS011;55784;50.734;7.086;2022-09-17T03:56:42;9.07;;;1.17;;
68800;SDS011;55784;50.734;7.086;2022-09-17T03:59:07;9.63;;;1.10;;
68800;SDS011;55784;50.734;7.086;2022-09-17T04:01:33;7.43;;;1.10;;
68800;SDS011;55784;50.734;7.086;2022-09-17T04:03:58;5.65;;;0.90;;
68800;SDS011;55784;50.734;7.086;2022-09-17T04:06:24;8.30;;;1.20;;
68800;SDS011;55784;50.734;7.086;2022-09-17T04:08:49;5.87;;;1.00;;
68800;SDS011;55784;50.734;7.086;2022-09-17T04:11:15;9.73;;;1.50;;
68800;SDS011;55784;50.734;7.086;2022-09-17T04:13:41;8.40;;;1.10;;
68800;SDS011;55784;50.734;7.086;2022-09-17T04:16:06;9.47;;;1.10;;
68800;SDS011;55784;50.734;7.086;2022-09-17T04:18:31;8.67;;;1.27;;
68800;SDS011;55784;50.734;7.086;2022-09-17T04:20:57;9.48;;;1.40;;
68800;SDS011;55784;50.734;7.086;2022-09-17T04:23:23;8.33;;;1.17;;
68800;SDS011;55784;50.734;7.086;2022-09-17T04:25:48;8.67;;;1.30;;
68800;SDS011;55784;50.734;7.086;2022-09-17T04:28:13;9.05;;;1.30;;
68800;SDS011;55784;50.734;7.086;2022-09-17T04:30:40;8.60;;;1.10;;
68800;SDS011;55784;50.734;7.086;2022-09-17T04:33:07;10.23;;;1.33;;
68800;SDS011;55784;50.734;7.086;2022-09-17T04:35:33;7.80;;;1.23;;
68800;SDS011;55784;50.734;7.086;2022-09-17T04:37:58;7.73;;;1.00;;
68800;SDS011;55784;50.734;7.086;2022-09-17T04:40:24;9.60;;;0.93;;
68800;SDS011;55784;50.734;7.086;2022-09-17T04:42:53;8.85;;;1.60;;
68800;SDS011;55784;50.734;7.086;2022-09-17T04:45:19;7.88;;;1.13;;
68800;SDS011;55784;50.734;7.086;2022-09-17T04:47:45;7.33;;;1.03;;
68800;SDS011;55784;50.734;7.086;2022-09-17T04:50:10;9.73;;;1.20;;
68800;SDS011;55784;50.734;7.086;2022-09-17T04:52:36;9.40;;;1.00;;
68800;SDS011;55784;50.734;7.086;2022-09-17T04:55:01;6.60;;;1.20;;
68800;SDS011;55784;50.734;7.086;2022-09-17T04:57:27;11.32;;;1.23;;
68800;SDS011;55784;50.734;7.086;2022-09-17T04:59:52;6.83;;;0.87;;
68800;SDS011;55784;50.734;7.086;2022-09-17T05:02:18;8.23;;;1.13;;
68800;SDS011;55784;50.734;7.086;2022-09-17T05:04:43;6.17;;;0.73;;
68800;SDS011;55784;50.734;7.086;2022-09-17T05:07:08;7.10;;;0.93;;
68800;SDS011;55784;50.734;7.086;2022-09-17T05:09:34;8.47;;;1.30;;
68800;SDS011;55784;50.734;7.086;2022-09-17T05:11:59;8.13;;;1.03;;
68800;SDS011;55784;50.734;7.086;2022-09-17T05:14:24;7.00;;;0.80;;
68800;SDS011;55784;50.734;7.086;2022-09-17T05:16:50;9.53;;;1.00;;
68800;SDS011;55784;50.734;7.086;2022-09-17T05:19:15;7.53;;;1.10;;
68800;SDS011;55784;50.734;7.086;2022-09-17T05:21:41;8.45;;;0.98;;
68800;SDS011;55784;50.734;7.086;2022-09-17T05:24:06;10.50;;;1.20;;
68800;SDS011;55784;50.734;7.086;2022-09-17T05:26:31;8.17;;;1.40;;
68800;SDS011;55784;50.734;7.086;2022-09-17T05:28:57;9.50;;;1.07;;
68800;SDS011;55784;50.734;7.086;2022-09-17T05:31:22;8.37;;;0.97;;
68800;SDS011;55784;50.734;7.086;2022-09-17T05:33:47;7.83;;;1.00;;
68800;SDS011;55784;50.734;7.086;2022-09-17T05:36:13;12.20;;;1.63;;
68800;SDS011;55784;50.734;7.086;2022-09-17T05:38:38;7.87;;;1.23;;
68800;SDS011;55784;50.734;7.086;2022-09-17T05:41:04;7.57;;;1.57;;
68800;SDS011;55784;50.734;7.086;2022-09-17T05:43:30;10.60;;;1.30;;
68800;SDS011;55784;50.734;7.086;2022-09-17T05:45:59;9.32;;;1.00;;
68800;SDS011;55784;50.734;7.086;2022-09-17T05:48:28;9.05;;;1.25;;
68800;SDS011;55784;50.734;7.086;2022-09-17T05:50:54;8.48;;;1.02;;
68800;SDS011;55784;50.734;7.086;2022-09-17T05:53:20;8.40;;;1.13;;
68800;SDS011;55784;50.734;7.086;2022-09-17T05:55:45;9.10;;;1.20;;
68800;SDS011;55784;50.734;7.086;2022-09-17T05:58:11;10.05;;;1.55;;
68800;SDS011;55784;50.734;7.086;2022-09-17T06:00:38;7.85;;;1.02;;
68800;SDS011;55784;50.734;7.086;2022-09-17T06:03:05;8.67;;;1.17;;
68800;SDS011;55784;50.734;7.086;2022-09-17T06:05:30;6.45;;;0.90;;
68800;SDS011;55784;50.734;7.086;2022-09-17T06:07:56;5.83;;;0.93;;
68800;SDS011;55784;50.734;7.086;2022-09-17T06:10:21;10.03;;;1.30;;
68800;SDS011;55784;50.734;7.086;2022-09-17T06:12:46;9.37;;;1.50;;
68800;SDS011;55784;50.734;7.086;2022-09-17T06:15:12;8.83;;;1.17;;
68800;SDS011;55784;50.734;7.086;2022-09-17T06:17:38;6.63;;;0.90;;
68800;SDS011;55784;50.734;7.086;2022-09-17T06:20:04;5.50;;;0.97;;
68800;SDS011;55784;50.734;7.086;2022-09-17T06:22:30;8.25;;;1.00;;
68800;SDS011;55784;50.734;7.086;2022-09-17T06:24:55;7.13;;;1.10;;
68800;SDS011;55784;50.734;7.086;2022-09-17T06:27:21;11.10;;;1.20;;
68800;SDS011;55784;50.734;7.086;2022-09-17T06:29:46;9.73;;;0.97;;
68800;SDS011;55784;50.734;7.086;2022-09-17T06:32:11;7.47;;;1.13;;
68800;SDS011;55784;50.734;7.086;2022-09-17T06:34:39;6.70;;;1.15;;
68800;SDS011;55784;50.734;7.086;2022-09-17T06:37:05;7.75;;;1.05;;
68800;SDS011;55784;50.734;7.086;2022-09-17T06:39:30;7.83;;;1.70;;
68800;SDS011;55784;50.734;7.086;2022-09-17T06:41:55;10.97;;;0.90;;
68800;SDS011;55784;50.734;7.086;2022-09-17T06:44:21;5.63;;;0.90;;
68800;SDS011;55784;50.734;7.086;2022-09-17T06:46:48;9.67;;;0.87;;
68800;SDS011;55784;50.734;7.086;2022-09-17T06:49:14;8.88;;;1.15;;
68800;SDS011;55784;50.734;7.086;2022-09-17T06:51:41;8.85;;;0.80;;
68800;SDS011;55784;50.734;7.086;2022-09-17T06:54:07;8.17;;;0.97;;
68800;SDS011;55784;50.734;7.086;2022-09-17T06:56:32;7.63;;;1.00;;
68800;SDS011;55784;50.734;7.086;2022-09-17T06:58:58;7.20;;;0.90;;
68800;SDS011;55784;50.734;7.086;2022-09-17T07:01:23;6.25;;;1.00;;
68800;SDS011;55784;50.734;7.086;2022-09-17T07:03:49;9.20;;;0.90;;
68800;SDS011;55784;50.734;7.086;2022-09-17T07:06:14;7.10;;;0.80;;
68800;SDS011;55784;50.734;7.086;2022-09-17T07:08:39;7.90;;;1.10;;
68800;SDS011;55784;50.734;7.086;2022-09-17T07:11:05;7.70;;;1.20;;
68800;SDS011;55784;50.734;7.086;2022-09-17T07:13:32;8.13;;;0.82;;
68800;SDS011;55784;50.734;7.086;2022-09-17T07:15:58;8.02;;;0.88;;
68800;SDS011;55784;50.734;7.086;2022-09-17T07:18:25;6.27;;;0.80;;
68800;SDS011;55784;50.734;7.086;2022-09-17T07:20:54;7.38;;;0.90;;
68800;SDS011;55784;50.734;7.086;2022-09-17T07:23:24;8.95;;;0.80;;
68800;SDS011;55784;50.734;7.086;2022-09-17T07:25:55;7.05;;;0.80;;
68800;SDS011;55784;50.734;7.086;2022-09-17T07:28:24;8.00;;;0.80;;
68800;SDS011;55784;50.734;7.086;2022-09-17T07:30:51;6.30;;;0.80;;
68800;SDS011;55784;50.734;7.086;2022-09-17T07:33:18;3.92;;;0.70;;
68800;SDS011;55784;50.734;7.086;2022-09-17T07:35:52;7.57;;;1.15;;
68800;SDS011;55784;50.734;7.086;2022-09-17T07:38:19;7.15;;;0.93;;
68800;SDS011;55784;50.734;7.086;2022-09-17T07:40:51;11.57;;;1.07;;
68800;SDS011;55784;50.734;7.086;2022-09-17T07:43:21;7.70;;;1.13;;
68800;SDS011;55784;50.734;7.086;2022-09-17T07:45:47;6.83;;;0.77;;
68800;SDS011;55784;50.734;7.086;2022-09-17T07:48:13;8.35;;;0.98;;
68800;SDS011;55784;50.734;7.086;2022-09-17T07:50:38;7.90;;;1.00;;
68800;SDS011;55784;50.734;7.086;2022-09-17T07:53:03;7.50;;;0.90;;
68800;SDS011;55784;50.734;7.086;2022-09-17T07:55:29;6.53;;;0.90;;
68800;SDS011;55784;50.734;7.086;2022-09-17T07:57:54;7.10;;;0.70;;
68800;SDS011;55784;50.734;7.086;2022-09-17T08:00:20;9.68;;;1.17;;
68800;SDS011;55784;50.734;7.086;2022-09-17T08:02:51;10.40;;;0.80;;
68800;SDS011;55784;50.734;7.086;2022-09-17T08:05:17;9.73;;;0.93;;
68800;SDS011;55784;50.734;7.086;2022-09-17T08:07:42;6.57;;;0.90;;
68800;SDS011;55784;50.734;7.086;2022-09-17T08:10:08;9.87;;;1.03;;
68800;SDS011;55784;50.734;7.086;2022-09-17T08:12:33;7.70;;;0.80;;
68800;SDS011;55784;50.734;7.086;2022-09-17T08:14:58;8.30;;;0.70;;
68800;SDS011;55784;50.734;7.086;2022-09-17T08:17:24;4.80;;;0.80;;
68800;SDS011;55784;50.734;7.086;2022-09-17T08:19:49;7.03;;;0.90;;
68800;SDS011;55784;50.734;7.086;2022-09-17T08:22:14;6.87;;;0.90;;
68800;SDS011;55784;50.734;7.086;2022-09-17T08:24:40;6.50;;;0.87;;
68800;SDS011;55784;50.734;7.086;2022-09-17T08:27:06;7.03;;;0.80;;
68800;SDS011;55784;50.734;7.086;2022-09-17T08:29:31;8.33;;;0.90;;
68800;SDS011;55784;50.734;7.086;2022-09-17T08:31:57;7.67;;;0.90;;
68800;SDS011;55784;50.734;7.086;2022-09-17T08:34:22;6.17;;;0.93;;
68800;SDS011;55784;50.734;7.086;2022-09-17T08:36:48;6.80;;;0.70;;
68800;SDS011;55784;50.734;7.086;2022-09-17T08:39:13;6.10;;;0.83;;
68800;SDS011;55784;50.734;7.086;2022-09-17T08:46:57;8.60;;;1.02;;
68800;SDS011;55784;50.734;7.086;2022-09-17T08:49:35;7.60;;;0.80;;
68800;SDS011;55784;50.734;7.086;2022-09-17T09:01:00;10.23;;;0.82;;
68800;SDS011;55784;50.734;7.086;2022-09-17T09:06:15;5.78;;;1.10;;
68800;SDS011;55784;50.734;7.086;2022-09-17T09:08:54;5.90;;;0.70;;
68800;SDS011;55784;50.734;7.086;2022-09-17T09:11:25;7.03;;;0.85;;
68800;SDS011;55784;50.734;7.086;2022-09-17T09:13:54;6.28;;;0.70;;
68800;SDS011;55784;50.734;7.086;2022-09-17T09:16:28;6.97;;;0.80;;
68800;SDS011;55784;50.734;7.086;2022-09-17T09:18:58;6.78;;;0.70;;
68800;SDS011;55784;50.734;7.086;2022-09-17T09:21:38;5.87;;;0.60;;
68800;SDS011;55784;50.734;7.086;2022-09-17T09:24:24;6.63;;;0.70;;
68800;SDS011;55784;50.734;7.086;2022-09-17T09:27:04;9.63;;;0.90;;
68800;SDS011;55784;50.734;7.086;2022-09-17T09:29:45;6.68;;;0.50;;
68800;SDS011;55784;50.734;7.086;2022-09-17T09:32:31;5.75;;;0.68;;
68800;SDS011;55784;50.734;7.086;2022-09-17T09:35:06;7.03;;;0.87;;
68800;SDS011;55784;50.734;7.086;2022-09-17T09:37:40;7.10;;;0.93;;
68800;SDS011;55784;50.734;7.086;2022-09-17T09:43:19;8.05;;;1.08;;
68800;SDS011;55784;50.734;7.086;2022-09-17T09:48:45;7.10;;;0.90;;
68800;SDS011;55784;50.734;7.086;2022-09-17T09:51:40;8.98;;;0.85;;
68800;SDS011;55784;50.734;7.086;2022-09-17T09:57:01;8.30;;;1.02;;
68800;SDS011;55784;50.734;7.086;2022-09-17T09:59:31;7.53;;;0.98;;
68800;SDS011;55784;50.734;7.086;2022-09-17T10:01:57;4.40;;;0.57;;
68800;SDS011;55784;50.734;7.086;2022-09-17T10:04:23;4.35;;;0.60;;
68800;SDS011;55784;50.734;7.086;2022-09-17T10:06:53;4.83;;;0.77;;
68800;SDS011;55784;50.734;7.086;2022-09-17T10:09:30;9.10;;;1.10;;
68800;SDS011;55784;50.734;7.086;2022-09-17T10:14:32;5.82;;;0.55;;
68800;SDS011;55784;50.734;7.086;2022-09-17T10:17:15;4.57;;;0.60;;
68800;SDS011;55784;50.734;7.086;2022-09-17T10:19:43;8.20;;;1.27;;
68800;SDS011;55784;50.734;7.086;2022-09-17T10:22:22;6.90;;;0.80;;
68800;SDS011;55784;50.734;7.086;2022-09-17T10:24:57;7.32;;;0.55;;
68800;SDS011;55784;50.734;7.086;2022-09-17T10:27:24;7.13;;;1.10;;
68800;SDS011;55784;50.734;7.086;2022-09-17T10:29:53;7.05;;;0.80;;
68800;SDS011;55784;50.734;7.086;2022-09-17T10:32:38;5.53;;;0.73;;
68800;SDS011;55784;50.734;7.086;2022-09-17T10:37:48;7.60;;;0.93;;
68800;SDS011;55784;50.734;7.086;2022-09-17T10:42:44;6.20;;;0.63;;
68800;SDS011;55784;50.734;7.086;2022-09-17T10:45:23;4.45;;;0.50;;
68800;SDS011;55784;50.734;7.086;2022-09-17T10:47:48;4.13;;;0.38;;
68800;SDS011;55784;50.734;7.086;2022-09-17T10:50:18;4.13;;;0.70;;
68800;SDS011;55784;50.734;7.086;2022-09-17T10:52:52;5.25;;;0.60;;
68800;SDS011;55784;50.734;7.086;2022-09-17T11:01:39;4.30;;;0.65;;
68800;SDS011;55784;50.734;7.086;2022-09-17T11:07:23;4.43;;;0.50;;
68800;SDS011;55784;50.734;7.086;2022-09-17T11:18:23;9.50;;;1.33;;
68800;SDS011;55784;50.734;7.086;2022-09-17T11:29:09;6.97;;;0.82;;
68800;SDS011;55784;50.734;7.086;2022-09-17T11:31:42;4.10;;;0.60;;
68800;SDS011;55784;50.734;7.086;2022-09-17T11:34:41;7.05;;;0.90;;
68800;SDS011;55784;50.734;7.086;2022-09-17T11:37:17;7.55;;;1.23;;
68800;SDS011;55784;50.734;7.086;2022-09-17T11:42:25;8.32;;;0.50;;
68800;SDS011;55784;50.734;7.086;2022-09-17T11:44:56;4.10;;;0.52;;
68800;SDS011;55784;50.734;7.086;2022-09-17T11:47:39;4.95;;;0.50;;
68800;SDS011;55784;50.734;7.086;2022-09-17T11:50:31;3.38;;;0.40;;
68800;SDS011;55784;50.734;7.086;2022-09-17T11:53:06;6.33;;;0.70;;
68800;SDS011;55784;50.734;7.086;2022-09-17T11:55:58;4.40;;;0.50;;
68800;SDS011;55784;50.734;7.086;2022-09-17T12:01:33;4.70;;;0.60;;
68800;SDS011;55784;50.734;7.086;2022-09-17T12:04:21;3.50;;;0.50;;
68800;SDS011;55784;50.734;7.086;2022-09-17T12:07:03;4.57;;;0.70;;
68800;SDS011;55784;50.734;7.086;2022-09-17T12:09:47;5.57;;;0.90;;
68800;SDS011;55784;50.734;7.086;2022-09-17T12:12:18;6.13;;;0.50;;
68800;SDS011;55784;50.734;7.086;2022-09-17T12:14:55;4.53;;;0.40;;
68800;SDS011;55784;50.734;7.086;2022-09-17T12:17:33;4.75;;;0.80;;
68800;SDS011;55784;50.734;7.086;2022-09-17T12:20:07;6.80;;;0.70;;
68800;SDS011;55784;50.734;7.086;2022-09-17T12:22:45;4.55;;;0.50;;
68800;SDS011;55784;50.734;7.086;2022-09-17T12:25:13;5.13;;;0.60;;
68800;SDS011;55784;50.734;7.086;2022-09-17T12:27:55;4.22;;;0.70;;
68800;SDS011;55784;50.734;7.086;2022-09-17T12:30:30;3.53;;;0.60;;
68800;SDS011;55784;50.734;7.086;2022-09-17T12:35:41;4.18;;;0.50;;
68800;SDS011;55784;50.734;7.086;2022-09-17T12:44:35;5.00;;;0.50;;
68800;SDS011;55784;50.734;7.086;2022-09-17T13:01:04;3.92;;;0.45;;
68800;SDS011;55784;50.734;7.086;2022-09-17T13:03:36;3.45;;;0.50;;
68800;SDS011;55784;50.734;7.086;2022-09-17T13:06:16;4.60;;;0.43;;
68800;SDS011;55784;50.734;7.086;2022-09-17T13:11:37;3.17;;;0.60;;
68800;SDS011;55784;50.734;7.086;2022-09-17T13:14:17;4.68;;;0.90;;
68800;SDS011;55784;50.734;7.086;2022-09-17T13:22:29;4.03;;;0.55;;
68800;SDS011;55784;50.734;7.086;2022-09-17T13:25:03;4.87;;;0.90;;
68800;SDS011;55784;50.734;7.086;2022-09-17T13:27:31;2.67;;;0.55;;
68800;SDS011;55784;50.734;7.086;2022-09-17T13:30:02;4.40;;;0.90;;
68800;SDS011;55784;50.734;7.086;2022-09-17T13:35:35;4.15;;;0.57;;
68800;SDS011;55784;50.734;7.086;2022-09-17T13:40:24;6.05;;;1.33;;
68800;SDS011;55784;50.734;7.086;2022-09-17T13:43:04;3.40;;;0.40;;
68800;SDS011;55784;50.734;7.086;2022-09-17T13:48:23;5.05;;;0.95;;
68800;SDS011;55784;50.734;7.086;2022-09-17T13:50:52;2.40;;;0.40;;
68800;SDS011;55784;50.734;7.086;2022-09-17T13:53:19;3.40;;;0.50;;
68800;SDS011;55784;50.734;7.086;2022-09-17T13:55:57;3.57;;;0.80;;
68800;SDS011;55784;50.734;7.086;2022-09-17T13:58:26;3.78;;;0.50;;
68800;SDS011;55784;50.734;7.086;2022-09-17T14:16:34;3.42;;;0.60;;
68800;SDS011;55784;50.734;7.086;2022-09-17T14:24:35;4.45;;;0.50;;
68800;SDS011;55784;50.734;7.086;2022-09-17T14:35:42;3.53;;;0.60;;
68800;SDS011;55784;50.734;7.086;2022-09-17T14:38:20;3.88;;;0.70;;
68800;SDS011;55784;50.734;7.086;2022-09-17T14:40:58;3.97;;;0.80;;
68800;SDS011;55784;50.734;7.086;2022-09-17T14:43:43;2.95;;;0.50;;
68800;SDS011;55784;50.734;7.086;2022-09-17T14:46:18;3.58;;;0.52;;
68800;SDS011;55784;50.734;7.086;2022-09-17T14:48:49;4.70;;;0.90;;
68800;SDS011;55784;50.734;7.086;2022-09-17T14:53:47;6.43;;;0.80;;
68800;SDS011;55784;50.734;7.086;2022-09-17T14:56:33;5.55;;;0.60;;
68800;SDS011;55784;50.734;7.086;2022-09-17T14:59:00;4.53;;;0.70;;
68800;SDS011;55784;50.734;7.086;2022-09-17T15:01:27;7.70;;;2.50;;
68800;SDS011;55784;50.734;7.086;2022-09-17T15:04:41;3.05;;;0.50;;
68800;SDS011;55784;50.734;7.086;2022-09-17T15:06:40;4.78;;;0.70;;
68800;SDS011;55784;50.734;7.086;2022-09-17T15:09:22;5.90;;;0.60;;
68800;SDS011;55784;50.734;7.086;2022-09-17T15:11:51;7.55;;;0.80;;
68800;SDS011;55784;50.734;7.086;2022-09-17T15:14:24;4.80;;;0.88;;
68800;SDS011;55784;50.734;7.086;2022-09-17T15:16:53;5.22;;;0.88;;
68800;SDS011;55784;50.734;7.086;2022-09-17T15:19:22;5.93;;;1.02;;
68800;SDS011;55784;50.734;7.086;2022-09-17T15:21:53;5.67;;;0.90;;
68800;SDS011;55784;50.734;7.086;2022-09-17T15:26:47;5.03;;;0.80;;
68800;SDS011;55784;50.734;7.086;2022-09-17T15:29:15;7.03;;;1.33;;
68800;SDS011;55784;50.734;7.086;2022-09-17T15:31:47;6.65;;;1.60;;
68800;SDS011;55784;50.734;7.086;2022-09-17T15:34:12;6.20;;;1.40;;
68800;SDS011;55784;50.734;7.086;2022-09-17T15:36:37;7.20;;;1.83;;
68800;SDS011;55784;50.734;7.086;2022-09-17T15:39:27;6.55;;;1.48;;
68800;SDS011;55784;50.734;7.086;2022-09-17T15:45:05;6.30;;;1.48;;
68800;SDS011;55784;50.734;7.086;2022-09-17T15:50:18;7.88;;;1.00;;
68800;SDS011;55784;50.734;7.086;2022-09-17T15:52:50;7.63;;;1.08;;
68800;SDS011;55784;50.734;7.086;2022-09-17T15:55:37;6.67;;;1.20;;
68800;SDS011;55784;50.734;7.086;2022-09-17T15:58:16;7.88;;;1.17;;
68800;SDS011;55784;50.734;7.086;2022-09-17T16:00:45;5.15;;;0.95;;
68800;SDS011;55784;50.734;7.086;2022-09-17T16:03:27;5.47;;;0.90;;
68800;SDS011;55784;50.734;7.086;2022-09-17T16:08:48;6.53;;;1.23;;
68800;SDS011;55784;50.734;7.086;2022-09-17T16:11:25;6.70;;;1.20;;
68800;SDS011;55784;50.734;7.086;2022-09-17T16:13:54;8.88;;;1.10;;
68800;SDS011;55784;50.734;7.086;2022-09-17T16:16:29;6.15;;;0.88;;
68800;SDS011;55784;50.734;7.086;2022-09-17T16:18:57;6.13;;;1.10;;
68800;SDS011;55784;50.734;7.086;2022-09-17T16:21:23;5.13;;;0.85;;
68800;SDS011;55784;50.734;7.086;2022-09-17T16:23:49;7.53;;;0.93;;
68800;SDS011;55784;50.734;7.086;2022-09-17T16:26:15;7.93;;;1.00;;
68800;SDS011;55784;50.734;7.086;2022-09-17T16:28:48;8.07;;;0.90;;
68800;SDS011;55784;50.734;7.086;2022-09-17T16:31:17;7.78;;;1.20;;
68800;SDS011;55784;50.734;7.086;2022-09-17T16:33:43;5.25;;;1.00;;
68800;SDS011;55784;50.734;7.086;2022-09-17T16:36:08;6.53;;;1.20;;
68800;SDS011;55784;50.734;7.086;2022-09-17T16:38:34;7.30;;;1.30;;
68800;SDS011;55784;50.734;7.086;2022-09-17T16:41:02;7.03;;;1.40;;
68800;SDS011;55784;50.734;7.086;2022-09-17T16:43:29;8.13;;;1.38;;
68800;SDS011;55784;50.734;7.086;2022-09-17T16:46:01;8.65;;;1.30;;
68800;SDS011;55784;50.734;7.086;2022-09-17T16:48:28;11.33;;;1.50;;
68800;SDS011;55784;50.734;7.086;2022-09-17T16:50:55;8.38;;;1.73;;
68800;SDS011;55784;50.734;7.086;2022-09-17T16:53:20;8.33;;;1.63;;
68800;SDS011;55784;50.734;7.086;2022-09-17T16:55:45;7.60;;;1.10;;
68800;SDS011;55784;50.734;7.086;2022-09-17T16:58:11;8.35;;;1.10;;
68800;SDS011;55784;50.734;7.086;2022-09-17T17:00:36;10.20;;;1.10;;
68800;SDS011;55784;50.734;7.086;2022-09-17T17:03:02;7.63;;;1.00;;
68800;SDS011;55784;50.734;7.086;2022-09-17T17:05:28;5.55;;;1.10;;
68800;SDS011;55784;50.734;7.086;2022-09-17T17:07:54;6.28;;;0.95;;
68800;SDS011;55784;50.734;7.086;2022-09-17T17:10:21;9.27;;;1.48;;
68800;SDS011;55784;50.734;7.086;2022-09-17T17:12:47;6.82;;;1.30;;
68800;SDS011;55784;50.734;7.086;2022-09-17T17:15:12;7.67;;;1.93;;
68800;SDS011;55784;50.734;7.086;2022-09-17T17:17:38;9.75;;;3.70;;
68800;SDS011;55784;50.734;7.086;2022-09-17T17:20:07;11.77;;;5.23;;
68800;SDS011;55784;50.734;7.086;2022-09-17T17:22:42;12.48;;;4.50;;
68800;SDS011;55784;50.734;7.086;2022-09-17T17:25:08;8.00;;;2.40;;
68800;SDS011;55784;50.734;7.086;2022-09-17T17:27:34;10.63;;;1.70;;
68800;SDS011;55784;50.734;7.086;2022-09-17T17:30:00;11.50;;;1.70;;
68800;SDS011;55784;50.734;7.086;2022-09-17T17:32:29;8.18;;;1.75;;
68800;SDS011;55784;50.734;7.086;2022-09-17T17:34:54;8.43;;;1.50;;
68800;SDS011;55784;50.734;7.086;2022-09-17T17:37:20;12.73;;;1.97;;
68800;SDS011;55784;50.734;7.086;2022-09-17T17:39:47;10.38;;;1.90;;
68800;SDS011;55784;50.734;7.086;2022-09-17T17:42:12;10.23;;;1.80;;
68800;SDS011;55784;50.734;7.086;2022-09-17T17:44:38;9.00;;;1.80;;
68800;SDS011;55784;50.734;7.086;2022-09-17T17:47:03;8.77;;;1.97;;
68800;SDS011;55784;50.734;7.086;2022-09-17T17:49:30;11.43;;;2.08;;
68800;SDS011;55784;50.734;7.086;2022-09-17T17:51:56;10.93;;;2.60;;
68800;SDS011;55784;50.734;7.086;2022-09-17T17:54:21;9.10;;;1.97;;
68800;SDS011;55784;50.734;7.086;2022-09-17T17:56:47;11.97;;;2.30;;
68800;SDS011;55784;50.734;7.086;2022-09-17T17:59:13;9.48;;;2.35;;
68800;SDS011;55784;50.734;7.086;2022-09-17T18:01:39;9.03;;;1.77;;